createdAt,value
2023-03-15T00:02:23.464Z,81.94
2023-03-15T00:04:55.044Z,84.03
2023-03-15T00:07:26.036Z,83.49
2023-03-15T00:09:54.395Z,83.90
2023-03-15T00:12:23.506Z,84.60
2023-03-15T00:14:52.106Z,85.13
2023-03-15T00:17:19.802Z,84.56
2023-03-15T00:19:47.966Z,84.67
2023-03-15T00:22:17.085Z,84.11
2023-03-15T00:24:45.232Z,83.35
2023-03-15T00:27:13.080Z,83.13
2023-03-15T00:29:40.803Z,83.37
2023-03-15T00:32:08.470Z,83.60
2023-03-15T00:34:36.134Z,82.56
2023-03-15T00:37:03.831Z,84.00
2023-03-15T00:39:37.727Z,83.58
2023-03-15T00:42:05.781Z,82.77
2023-03-15T00:44:33.423Z,83.48
2023-03-15T00:47:01.084Z,82.92
2023-03-15T00:49:28.783Z,83.68
2023-03-15T00:51:56.640Z,82.98
2023-03-15T00:54:25.144Z,83.82
2023-03-15T00:56:54.417Z,83.66
2023-03-15T00:59:22.345Z,83.32
2023-03-15T01:01:50.005Z,83.55
2023-03-15T01:04:17.678Z,83.82
2023-03-15T01:06:45.292Z,84.24
2023-03-15T01:09:13.162Z,84.11
2023-03-15T01:11:40.898Z,84.12
2023-03-15T01:14:10.640Z,84.39
2023-03-15T01:16:38.258Z,84.77
2023-03-15T01:19:06.172Z,84.47
2023-03-15T01:21:33.867Z,84.46
2023-03-15T01:24:01.527Z,84.34
2023-03-15T01:26:29.649Z,83.92
2023-03-15T01:28:57.354Z,84.50
2023-03-15T01:31:28.049Z,85.32
2023-03-15T01:33:56.092Z,85.31
2023-03-15T01:36:24.321Z,86.25
2023-03-15T01:38:52.382Z,86.11
2023-03-15T01:41:20.748Z,86.52
2023-03-15T01:43:49.020Z,86.45
2023-03-15T01:46:35.903Z,87.03
2023-03-15T01:49:08.892Z,87.16
2023-03-15T01:51:41.705Z,87.44
2023-03-15T01:54:14.528Z,87.23
2023-03-15T01:56:45.928Z,87.54
2023-03-15T01:59:17.891Z,87.54
2023-03-15T02:01:46.866Z,87.03
2023-03-15T02:04:25.024Z,87.48
2023-03-15T02:06:59.025Z,87.17
2023-03-15T02:09:31.802Z,86.92
2023-03-15T02:12:00.160Z,87.05
2023-03-15T02:14:28.916Z,87.59
2023-03-15T02:16:56.636Z,87.88
2023-03-15T02:19:38.012Z,88.03
2023-03-15T02:22:24.054Z,87.66
2023-03-15T02:25:00.718Z,87.87
2023-03-15T02:27:32.053Z,87.86
2023-03-15T02:30:03.120Z,87.72
2023-03-15T02:32:32.097Z,87.93
2023-03-15T02:35:00.319Z,87.57
2023-03-15T02:37:28.325Z,87.02
2023-03-15T02:39:55.960Z,86.89
2023-03-15T02:42:24.540Z,86.35
2023-03-15T02:44:55.750Z,86.30
2023-03-15T02:47:28.237Z,86.08
2023-03-15T02:49:56.443Z,85.80
2023-03-15T02:52:24.632Z,85.83
2023-03-15T02:54:54.131Z,85.27
2023-03-15T02:57:22.376Z,84.21
2023-03-15T02:59:50.907Z,84.69
2023-03-15T03:02:20.620Z,84.58
2023-03-15T03:04:48.532Z,84.34
2023-03-15T03:07:16.823Z,83.58
2023-03-15T03:09:44.749Z,86.13
2023-03-15T03:12:12.836Z,85.66
2023-03-15T03:14:43.345Z,85.70
2023-03-15T03:17:11.337Z,83.37
2023-03-15T03:19:40.356Z,84.44
2023-03-15T03:22:08.166Z,84.47
2023-03-15T03:24:35.867Z,83.81
2023-03-15T03:27:03.781Z,83.88
2023-03-15T03:29:31.762Z,83.40
2023-03-15T03:32:00.420Z,83.58
2023-03-15T03:34:28.119Z,83.12
2023-03-15T03:36:57.152Z,83.96
2023-03-15T03:39:24.847Z,83.93
2023-03-15T03:41:52.685Z,83.81
2023-03-15T03:44:20.564Z,82.54
2023-03-15T03:46:48.335Z,82.39
2023-03-15T03:49:16.292Z,81.56
2023-03-15T03:51:44.000Z,81.27
2023-03-15T03:54:13.124Z,81.75
2023-03-15T03:56:40.854Z,82.22
2023-03-15T03:59:08.580Z,82.23
2023-03-15T04:01:36.193Z,82.30
2023-03-15T04:04:03.845Z,83.79
2023-03-15T04:06:32.202Z,84.13
2023-03-15T04:08:59.890Z,83.44
2023-03-15T04:11:29.180Z,83.64
2023-03-15T04:13:56.921Z,82.35
2023-03-15T04:16:25.689Z,81.39
2023-03-15T04:18:56.245Z,80.67
2023-03-15T04:21:24.317Z,79.37
2023-03-15T04:23:52.087Z,80.02
2023-03-15T04:26:19.755Z,79.26
2023-03-15T04:28:48.753Z,79.08
2023-03-15T04:31:16.678Z,80.08
2023-03-15T04:33:44.455Z,80.43
2023-03-15T04:36:18.927Z,80.02
2023-03-15T04:38:47.621Z,78.23
2023-03-15T04:41:16.307Z,78.49
2023-03-15T04:43:44.295Z,79.84
2023-03-15T04:46:13.551Z,80.25
2023-03-15T04:48:41.701Z,79.76
2023-03-15T04:51:09.460Z,80.39
2023-03-15T04:53:39.051Z,80.92
2023-03-15T04:56:07.189Z,79.67
2023-03-15T04:58:34.920Z,77.27
2023-03-15T05:01:02.727Z,79.03
2023-03-15T05:03:32.028Z,78.83
2023-03-15T05:05:59.756Z,79.18
2023-03-15T05:08:27.378Z,77.60
2023-03-15T05:10:55.250Z,78.16
2023-03-15T05:13:22.815Z,77.85
2023-03-15T05:15:50.457Z,77.92
2023-03-15T05:18:18.045Z,78.27
2023-03-15T05:20:46.968Z,76.24
2023-03-15T05:23:14.753Z,77.02
2023-03-15T05:25:43.209Z,77.97
2023-03-15T05:28:11.002Z,77.89
2023-03-15T05:30:38.694Z,78.55
2023-03-15T05:33:06.406Z,78.44
2023-03-15T05:35:34.285Z,77.11
2023-03-15T05:38:03.621Z,76.90
2023-03-15T05:40:31.293Z,77.79
2023-03-15T05:42:58.869Z,77.90
2023-03-15T05:45:26.636Z,78.30
2023-03-15T05:47:54.258Z,78.30
2023-03-15T05:50:21.960Z,78.40
2023-03-15T05:52:51.714Z,78.07
2023-03-15T05:55:21.134Z,77.83
2023-03-15T05:57:48.868Z,77.48
2023-03-15T06:00:17.604Z,78.07
2023-03-15T06:02:46.372Z,78.90
2023-03-15T06:05:14.477Z,78.78
2023-03-15T06:07:42.214Z,79.29
2023-03-15T06:10:11.654Z,79.44
2023-03-15T06:12:40.783Z,79.90
2023-03-15T06:15:09.529Z,81.40
2023-03-15T06:17:37.312Z,80.03
2023-03-15T06:20:05.509Z,79.95
2023-03-15T06:22:33.282Z,79.87
2023-03-15T06:25:02.237Z,78.22
2023-03-15T06:27:29.903Z,78.08
2023-03-15T06:29:59.595Z,77.83
2023-03-15T06:32:27.388Z,76.23
2023-03-15T06:34:55.184Z,76.46
2023-03-15T06:37:34.507Z,75.99
2023-03-15T06:40:04.116Z,75.88
2023-03-15T06:42:31.983Z,76.76
2023-03-15T06:45:01.179Z,76.65
2023-03-15T06:47:29.192Z,74.90
2023-03-15T06:49:57.121Z,75.53
2023-03-15T06:52:25.124Z,76.71
2023-03-15T06:54:53.105Z,77.16
2023-03-15T06:57:20.820Z,77.11
2023-03-15T06:59:48.817Z,76.45
2023-03-15T07:02:19.717Z,77.13
2023-03-15T07:04:49.400Z,78.09
2023-03-15T07:07:17.773Z,76.83
2023-03-15T07:09:45.609Z,76.80
2023-03-15T07:12:13.743Z,76.00
2023-03-15T07:14:41.823Z,76.30
2023-03-15T07:17:09.605Z,76.58
2023-03-15T07:19:46.792Z,77.45
2023-03-15T07:22:22.731Z,76.18
2023-03-15T07:24:51.198Z,75.63
2023-03-15T07:27:19.705Z,76.59
2023-03-15T07:29:47.580Z,76.88
2023-03-15T07:32:15.984Z,76.80
2023-03-15T07:34:45.167Z,77.04
2023-03-15T07:37:12.828Z,77.51
2023-03-15T07:39:41.396Z,77.75
2023-03-15T07:42:10.282Z,78.26
2023-03-15T07:44:38.010Z,77.59
2023-03-15T07:47:05.997Z,78.96
2023-03-15T07:49:34.677Z,79.18
2023-03-15T07:52:03.818Z,79.36
2023-03-15T07:54:32.049Z,79.03
2023-03-15T07:56:59.797Z,79.22
2023-03-15T07:59:27.570Z,78.97
2023-03-15T08:01:55.544Z,78.57
2023-03-15T08:04:23.175Z,78.47
2023-03-15T08:06:51.092Z,77.89
2023-03-15T08:09:20.167Z,78.56
2023-03-15T08:11:47.839Z,79.68
2023-03-15T08:14:15.787Z,81.17
2023-03-15T08:16:43.490Z,81.39
2023-03-15T08:19:11.207Z,81.80
2023-03-15T08:21:39.126Z,81.44
2023-03-15T08:24:07.403Z,81.30
2023-03-15T08:26:36.704Z,81.78
2023-03-15T08:29:04.779Z,82.01
2023-03-15T08:31:32.736Z,82.00
2023-03-15T08:34:00.611Z,81.36
2023-03-15T08:36:28.811Z,81.82
2023-03-15T08:38:56.783Z,82.32
2023-03-15T08:41:24.490Z,82.64
2023-03-15T08:43:53.715Z,82.24
2023-03-15T08:46:22.202Z,82.37
2023-03-15T08:48:49.948Z,82.66
2023-03-15T08:51:17.763Z,81.73
2023-03-15T08:53:45.426Z,82.01
2023-03-15T08:56:13.038Z,81.67
2023-03-15T08:58:41.618Z,81.07
2023-03-15T09:01:12.534Z,80.64
2023-03-15T09:03:42.454Z,82.18
2023-03-15T09:06:10.550Z,81.06
2023-03-15T09:08:38.507Z,80.75
2023-03-15T09:11:06.466Z,83.63
2023-03-15T09:13:34.971Z,86.41
2023-03-15T09:16:03.489Z,87.09
2023-03-15T09:18:34.006Z,87.38
2023-03-15T09:21:01.891Z,87.61
2023-03-15T09:23:29.817Z,87.63
2023-03-15T09:25:57.731Z,87.46
2023-03-15T09:28:26.892Z,86.19
2023-03-15T09:30:55.203Z,85.75
2023-03-15T09:33:23.597Z,84.05
2023-03-15T09:35:53.685Z,84.42
2023-03-15T09:38:24.100Z,84.35
2023-03-15T09:40:57.722Z,82.47
2023-03-15T09:43:44.137Z,82.07
2023-03-15T09:46:27.752Z,79.80
2023-03-15T09:49:00.995Z,76.40
2023-03-15T09:51:42.054Z,76.26
2023-03-15T09:54:13.904Z,78.95
2023-03-15T09:56:46.987Z,77.69
2023-03-15T09:59:22.638Z,77.87
2023-03-15T10:01:55.452Z,78.73
2023-03-15T10:04:28.782Z,79.04
2023-03-15T10:07:00.678Z,78.05
2023-03-15T10:09:32.984Z,76.38
2023-03-15T10:12:06.116Z,76.69
2023-03-15T10:14:54.396Z,75.99
2023-03-15T10:17:29.429Z,77.76
2023-03-15T10:20:01.917Z,78.70
2023-03-15T10:22:37.541Z,80.10
2023-03-15T10:25:14.420Z,77.97
2023-03-15T10:27:46.911Z,78.41
2023-03-15T10:30:18.688Z,81.87
2023-03-15T10:32:50.797Z,82.43
2023-03-15T10:35:19.762Z,82.63
2023-03-15T10:37:49.367Z,84.78
2023-03-15T10:40:38.576Z,84.90
2023-03-15T10:43:14.436Z,84.75
2023-03-15T10:45:42.119Z,85.91
2023-03-15T10:48:10.091Z,85.94
2023-03-15T10:50:40.523Z,85.65
2023-03-15T10:53:12.871Z,84.69
2023-03-15T10:55:45.187Z,84.80
2023-03-15T10:58:30.356Z,86.13
2023-03-15T11:01:03.790Z,83.91
2023-03-15T11:03:32.252Z,82.57
2023-03-15T11:06:00.632Z,80.83
2023-03-15T11:08:40.655Z,80.65
2023-03-15T11:11:09.578Z,79.03
2023-03-15T11:13:38.762Z,76.81
2023-03-15T11:16:09.848Z,77.29
2023-03-15T11:18:44.435Z,76.29
2023-03-15T11:21:15.272Z,76.38
2023-03-15T11:23:47.328Z,76.58
2023-03-15T11:26:31.503Z,78.10
2023-03-15T11:29:03.175Z,76.76
2023-03-15T11:31:32.374Z,78.61
2023-03-15T11:34:04.627Z,77.98
2023-03-15T11:36:37.036Z,76.46
2023-03-15T11:39:06.901Z,75.37
2023-03-15T11:41:38.008Z,75.19
2023-03-15T11:44:16.758Z,74.50
2023-03-15T11:46:49.713Z,72.33
2023-03-15T11:49:24.788Z,71.24
2023-03-15T11:51:57.055Z,70.14
2023-03-15T11:54:29.879Z,68.96
2023-03-15T11:56:58.839Z,68.75
2023-03-15T11:59:29.583Z,71.35
2023-03-15T12:02:00.163Z,71.37
2023-03-15T12:04:42.333Z,72.57
2023-03-15T12:07:30.054Z,73.18
2023-03-15T12:10:19.044Z,72.04
2023-03-15T12:12:48.195Z,71.71
2023-03-15T12:15:48.862Z,72.81
2023-03-15T12:18:20.990Z,67.83
2023-03-15T12:20:58.868Z,67.97
2023-03-15T12:23:38.934Z,68.62
2023-03-15T12:26:13.661Z,66.56
2023-03-15T12:28:45.318Z,65.41
2023-03-15T12:31:14.920Z,65.81
2023-03-15T12:33:48.079Z,63.92
2023-03-15T12:36:30.229Z,62.24
2023-03-15T12:39:04.913Z,60.52
2023-03-15T12:41:40.314Z,58.49
2023-03-15T12:44:36.112Z,59.82
2023-03-15T12:47:05.388Z,59.45
2023-03-15T12:49:39.709Z,58.13
2023-03-15T12:52:27.165Z,57.25
2023-03-15T12:55:00.984Z,58.69
2023-03-15T12:57:36.779Z,56.90
2023-03-15T13:00:11.845Z,59.13
2023-03-15T13:02:45.961Z,57.07
2023-03-15T13:05:24.256Z,56.34
2023-03-15T13:07:58.113Z,56.42
2023-03-15T13:10:40.594Z,57.22
2023-03-15T13:13:22.929Z,59.45
2023-03-15T13:16:06.039Z,56.34
2023-03-15T13:18:37.559Z,56.40
2023-03-15T13:21:13.662Z,57.06
2023-03-15T13:23:45.257Z,58.25
2023-03-15T13:26:33.293Z,59.47
2023-03-15T13:29:06.349Z,62.62
2023-03-15T13:31:34.694Z,62.00
2023-03-15T13:34:13.110Z,63.96
2023-03-15T13:36:44.363Z,64.29
2023-03-15T13:39:20.681Z,64.63
2023-03-15T13:41:48.350Z,64.72
2023-03-15T13:44:20.974Z,64.21
2023-03-15T13:46:50.002Z,64.04
2023-03-15T13:49:18.832Z,63.65
2023-03-15T13:51:47.730Z,62.67
2023-03-15T13:54:19.666Z,62.78
2023-03-15T13:56:58.130Z,62.39
2023-03-15T13:59:32.933Z,64.51
2023-03-15T14:02:03.202Z,62.51
2023-03-15T14:04:36.521Z,61.47
2023-03-15T14:07:17.939Z,58.03
2023-03-15T14:09:45.735Z,58.24
2023-03-15T14:12:22.822Z,58.48
2023-03-15T14:14:53.715Z,57.61
2023-03-15T14:17:27.005Z,53.06
2023-03-15T14:19:56.753Z,52.75
2023-03-15T14:22:25.656Z,52.77
2023-03-15T14:24:54.224Z,49.17
2023-03-15T14:27:24.354Z,49.92
2023-03-15T14:29:55.496Z,50.25
2023-03-15T14:32:26.605Z,50.81
2023-03-15T14:35:01.375Z,51.12
2023-03-15T14:37:33.263Z,50.40
2023-03-15T14:40:15.245Z,50.65
2023-03-15T14:42:43.132Z,49.96
2023-03-15T14:45:13.229Z,50.64
2023-03-15T14:47:55.542Z,47.56
2023-03-15T14:50:26.272Z,48.17
2023-03-15T14:52:55.159Z,46.48
2023-03-15T14:55:26.025Z,45.06
2023-03-15T14:57:53.697Z,46.37
2023-03-15T15:00:23.324Z,51.78
2023-03-15T15:02:55.155Z,53.74
2023-03-15T15:05:26.188Z,56.90
2023-03-15T15:07:58.828Z,60.41
2023-03-15T15:10:27.190Z,63.69
2023-03-15T15:13:05.610Z,63.78
2023-03-15T15:15:51.871Z,61.69
2023-03-15T15:18:23.098Z,61.43
2023-03-15T15:20:54.224Z,61.75
2023-03-15T15:23:24.543Z,62.18
2023-03-15T15:25:54.694Z,63.85
2023-03-15T15:28:34.173Z,65.35
2023-03-15T15:31:05.508Z,67.63
2023-03-15T15:33:33.955Z,64.72
2023-03-15T15:36:02.282Z,64.14
2023-03-15T15:38:37.993Z,61.67
2023-03-15T15:41:06.089Z,65.46
2023-03-15T15:43:33.941Z,65.64
2023-03-15T15:46:01.911Z,64.43
2023-03-15T15:48:31.055Z,63.13
2023-03-15T15:50:58.987Z,61.49
2023-03-15T15:53:28.709Z,62.25
2023-03-15T15:55:56.618Z,60.44
2023-03-15T15:58:24.337Z,58.15
2023-03-15T16:00:52.265Z,59.26
2023-03-15T16:03:20.115Z,60.88
2023-03-15T16:05:49.386Z,59.10
2023-03-15T16:08:23.234Z,59.60
2023-03-15T16:10:51.092Z,58.69
2023-03-15T16:13:18.924Z,58.01
2023-03-15T16:15:46.597Z,57.32
2023-03-15T16:18:14.658Z,56.22
2023-03-15T16:20:42.930Z,55.28
2023-03-15T16:23:18.059Z,56.76
2023-03-15T16:25:50.915Z,57.98
2023-03-15T16:28:18.703Z,57.53
2023-03-15T16:30:47.314Z,57.56
2023-03-15T16:33:16.769Z,57.94
2023-03-15T16:35:45.212Z,60.34
2023-03-15T16:38:17.115Z,58.85
2023-03-15T16:40:46.743Z,58.84
2023-03-15T16:43:15.432Z,59.21
2023-03-15T16:45:43.208Z,58.75
2023-03-15T16:48:11.913Z,59.34
2023-03-15T16:50:40.864Z,59.72
2023-03-15T16:53:11.184Z,57.81
2023-03-15T16:55:40.989Z,57.82
2023-03-15T16:58:17.005Z,57.99
2023-03-15T17:00:47.032Z,57.37
2023-03-15T17:03:16.073Z,60.14
2023-03-15T17:05:46.933Z,60.11
2023-03-15T17:08:18.519Z,61.32
2023-03-15T17:10:48.005Z,63.48
2023-03-15T17:13:21.462Z,64.43
2023-03-15T17:15:49.114Z,64.87
2023-03-15T17:18:18.807Z,65.71
2023-03-15T17:20:46.985Z,66.80
2023-03-15T17:23:15.164Z,67.26
2023-03-15T17:25:42.919Z,67.91
2023-03-15T17:28:12.459Z,68.96
2023-03-15T17:30:40.192Z,69.60
2023-03-15T17:33:08.044Z,70.37
2023-03-15T17:35:38.967Z,70.47
2023-03-15T17:38:14.213Z,71.70
2023-03-15T17:40:42.266Z,71.97
2023-03-15T17:43:14.913Z,73.32
2023-03-15T17:45:43.450Z,73.68
2023-03-15T17:48:11.246Z,76.41
2023-03-15T17:50:39.677Z,74.84
2023-03-15T17:53:14.675Z,73.10
2023-03-15T17:55:42.418Z,72.39
2023-03-15T17:58:13.810Z,72.11
2023-03-15T18:00:43.440Z,71.15
2023-03-15T18:03:13.558Z,71.17
2023-03-15T18:05:41.310Z,72.09
2023-03-15T18:08:12.152Z,73.20
2023-03-15T18:10:41.992Z,73.40
2023-03-15T18:13:17.226Z,73.89
2023-03-15T18:15:45.358Z,74.48
2023-03-15T18:18:13.203Z,75.52
2023-03-15T18:20:41.346Z,76.13
2023-03-15T18:23:09.392Z,76.93
2023-03-15T18:25:38.466Z,77.00
2023-03-15T18:28:06.385Z,78.09
2023-03-15T18:30:35.645Z,78.29
2023-03-15T18:33:04.311Z,78.62
2023-03-15T18:35:35.080Z,79.24
2023-03-15T18:38:03.960Z,78.81
2023-03-15T18:40:33.127Z,80.24
2023-03-15T18:43:01.402Z,80.52
2023-03-15T18:45:31.832Z,80.56
2023-03-15T18:48:01.524Z,81.09
2023-03-15T18:50:30.072Z,81.14
2023-03-15T18:52:58.139Z,81.31
2023-03-15T18:55:25.886Z,80.42
2023-03-15T18:57:54.989Z,80.96
2023-03-15T19:00:26.450Z,80.78
2023-03-15T19:02:55.806Z,81.65
2023-03-15T19:05:25.805Z,82.39
2023-03-15T19:07:53.636Z,82.12
2023-03-15T19:10:23.442Z,82.31
2023-03-15T19:12:52.293Z,82.08
2023-03-15T19:15:21.280Z,82.10
2023-03-15T19:17:50.922Z,81.86
2023-03-15T19:20:22.014Z,81.85
2023-03-15T19:22:51.889Z,82.59
2023-03-15T19:25:20.871Z,82.55
2023-03-15T19:27:49.629Z,82.89
2023-03-15T19:30:22.147Z,83.14
2023-03-15T19:32:51.337Z,82.97
2023-03-15T19:35:20.518Z,83.65
2023-03-15T19:37:49.472Z,84.09
2023-03-15T19:40:20.088Z,83.78
2023-03-15T19:42:49.354Z,83.59
2023-03-15T19:45:17.981Z,83.89
2023-03-15T19:47:47.240Z,84.41
2023-03-15T19:50:15.706Z,84.73
2023-03-15T19:52:46.909Z,84.54
2023-03-15T19:55:15.635Z,84.10
2023-03-15T19:57:45.280Z,84.28
2023-03-15T20:00:16.001Z,84.91
2023-03-15T20:02:45.021Z,84.59
2023-03-15T20:05:15.082Z,84.81
2023-03-15T20:07:43.728Z,85.10
2023-03-15T20:10:13.412Z,85.38
2023-03-15T20:12:42.288Z,85.42
2023-03-15T20:15:14.348Z,85.06
2023-03-15T20:17:42.315Z,85.25
2023-03-15T20:20:13.728Z,85.84
2023-03-15T20:22:43.428Z,86.34
2023-03-15T20:25:11.925Z,86.41
2023-03-15T20:27:39.990Z,86.49
2023-03-15T20:30:09.896Z,86.87
2023-03-15T20:32:39.003Z,87.16
2023-03-15T20:35:09.221Z,86.79
2023-03-15T20:37:42.359Z,86.82
2023-03-15T20:40:13.172Z,86.83
2023-03-15T20:42:41.379Z,87.27
2023-03-15T20:45:12.327Z,87.64
2023-03-15T20:47:42.448Z,87.10
2023-03-15T20:50:13.437Z,87.21
2023-03-15T20:52:42.611Z,87.01
2023-03-15T20:55:11.580Z,87.13
2023-03-15T20:57:41.693Z,88.00
2023-03-15T21:00:14.509Z,87.94
2023-03-15T21:02:43.614Z,88.40
2023-03-15T21:05:12.969Z,87.60
2023-03-15T21:07:42.056Z,88.30
2023-03-15T21:10:13.969Z,88.42
2023-03-15T21:12:41.926Z,88.47
2023-03-15T21:15:15.279Z,88.48
2023-03-15T21:17:44.350Z,88.79
2023-03-15T21:20:15.325Z,88.60
2023-03-15T21:22:43.261Z,88.53
2023-03-15T21:25:11.294Z,87.97
2023-03-15T21:27:38.883Z,88.40
2023-03-15T21:30:08.045Z,88.59
2023-03-15T21:32:36.014Z,88.94
2023-03-15T21:35:06.059Z,89.18
2023-03-15T21:37:34.204Z,89.00
2023-03-15T21:40:01.884Z,89.31
2023-03-15T21:42:30.815Z,89.33
2023-03-15T21:44:58.440Z,89.53
2023-03-15T21:47:26.166Z,89.55
2023-03-15T21:49:54.354Z,89.64
2023-03-15T21:52:26.205Z,89.67
2023-03-15T21:54:54.094Z,89.59
2023-03-15T21:57:23.053Z,89.68
2023-03-15T21:59:50.983Z,89.84
2023-03-15T22:02:18.728Z,90.20
2023-03-15T22:04:46.527Z,90.22
2023-03-15T22:07:14.232Z,90.28
2023-03-15T22:09:43.384Z,90.48
2023-03-15T22:12:12.166Z,90.88
2023-03-15T22:14:41.260Z,90.55
2023-03-15T22:17:09.219Z,90.64
2023-03-15T22:19:37.008Z,90.92
2023-03-15T22:22:05.389Z,90.74
2023-03-15T22:24:34.047Z,90.74
2023-03-15T22:27:03.283Z,91.04
2023-03-15T22:29:31.028Z,91.01
2023-03-15T22:31:58.733Z,90.95
2023-03-15T22:34:29.077Z,90.63
2023-03-15T22:36:56.759Z,91.06
2023-03-15T22:39:24.482Z,91.06
2023-03-15T22:41:52.112Z,91.22
2023-03-15T22:44:21.703Z,91.29
2023-03-15T22:46:49.545Z,91.27
2023-03-15T22:49:17.295Z,91.17
2023-03-15T22:51:45.036Z,91.24
2023-03-15T22:54:12.768Z,91.61
2023-03-15T22:56:41.086Z,91.84
2023-03-15T22:59:08.793Z,92.22
2023-03-15T23:01:38.017Z,91.89
2023-03-15T23:04:05.859Z,92.07
2023-03-15T23:06:33.877Z,92.09
2023-03-15T23:09:01.552Z,92.32
2023-03-15T23:11:29.328Z,92.39
2023-03-15T23:13:57.004Z,92.15
2023-03-15T23:16:24.676Z,92.04
2023-03-15T23:18:53.964Z,92.28
2023-03-15T23:21:21.832Z,92.12
2023-03-15T23:23:49.533Z,91.96
2023-03-15T23:26:19.418Z,91.64
2023-03-15T23:28:47.209Z,91.91
2023-03-15T23:31:15.094Z,92.29
2023-03-15T23:33:46.908Z,92.30
2023-03-15T23:36:16.310Z,92.25
2023-03-15T23:38:44.118Z,92.01
2023-03-15T23:41:12.407Z,92.51
2023-03-15T23:43:40.218Z,92.28
2023-03-15T23:46:07.865Z,91.62
2023-03-15T23:48:37.014Z,91.32
2023-03-15T23:51:05.391Z,90.54
2023-03-15T23:53:34.798Z,91.07
2023-03-15T23:56:03.028Z,90.99
2023-03-15T23:58:30.863Z,91.15
